If you wish to contribute or participate in the discussions about articles you are invited to join SKYbrary as a registered user

 Actions

Arak Airport

From SKYbrary Wiki

OIHR
Airport
ICAO: OIHR – IATA: AJK
Summary
Name Arak Airport
Region Middle East
Territory Iran IR.gif
Location Mobarak Abad, Markazi
Serving Arak
Elevation 1,662.074 m5,453 ft1,662.074 m
Coordinates 34° 8' 1.8164", 49° 50' 33.9475"
Runways
Designator Length Width Surface ROPS
8/26 2990 m9,809.711 ft 45 m147.638 ft ASP /


METAR
Observation OIHR 170700Z 04004KT CAVOK 30/05 Q1011
Station Arak
Date/Time 17 July 2018 07:00:00
Wind direction 40°
Wind speed 04 kts
Lowest cloud amount clouds and visibility OK
Temperature 30°C
Dew point 5°C
Humidity 20%
QNH 1011 hPa
Weather condition n/a

Airport serving Arak, Iran.

Climatology

Continental climate (Köppen climate classification Dsa).

Maps

Terrain

Loading map...

Airport Layout

Loading map...


Accidents & Serious Incidents at or in vicinity of OIHR

None on SKYbrary